createdAt,value
2019-06-27T00:02:33.236Z,10.07
2019-06-27T00:07:36.595Z,9.27
2019-06-27T00:12:39.973Z,10.80
2019-06-27T00:17:43.403Z,10.07
2019-06-27T00:22:47.035Z,10.83
2019-06-27T00:27:50.382Z,9.33
2019-06-27T00:32:53.810Z,10.03
2019-06-27T00:37:57.222Z,9.50
2019-06-27T00:43:00.578Z,8.40
2019-06-27T00:48:03.956Z,9.47
2019-06-27T00:53:07.355Z,8.63
2019-06-27T00:58:10.940Z,8.57
2019-06-27T01:03:14.475Z,8.63
2019-06-27T01:08:17.816Z,9.30
2019-06-27T01:13:21.255Z,8.73
2019-06-27T01:18:24.770Z,8.77
2019-06-27T01:23:28.141Z,9.60
2019-06-27T01:28:31.488Z,9.63
2019-06-27T01:33:34.881Z,9.73
2019-06-27T01:38:38.491Z,9.73
2019-06-27T01:43:41.826Z,10.83
2019-06-27T01:48:45.283Z,10.10
2019-06-27T01:53:48.801Z,9.27
2019-06-27T01:58:52.135Z,9.63
2019-06-27T02:03:55.485Z,9.57
2019-06-27T02:08:58.903Z,9.37
2019-06-27T02:14:02.367Z,9.67
2019-06-27T02:19:05.774Z,9.93
2019-06-27T02:24:09.289Z,9.83
2019-06-27T02:29:12.657Z,8.47
2019-06-27T02:34:16.129Z,8.53
2019-06-27T02:39:19.555Z,9.17
2019-06-27T02:44:22.908Z,9.20
2019-06-27T02:49:26.271Z,9.60
2019-06-27T02:54:29.725Z,10.13
2019-06-27T02:59:33.093Z,9.33
2019-06-27T03:04:36.485Z,9.13
2019-06-27T03:09:39.992Z,10.27
2019-06-27T03:14:43.377Z,10.53
2019-06-27T03:19:46.758Z,10.50
2019-06-27T03:24:50.117Z,10.97
2019-06-27T03:29:53.599Z,10.47
2019-06-27T03:34:57.022Z,11.37
2019-06-27T03:40:00.355Z,11.50
2019-06-27T03:45:05.935Z,11.07
2019-06-27T03:50:09.488Z,10.73
2019-06-27T03:55:12.945Z,9.70
2019-06-27T04:00:28.425Z,9.57
2019-06-27T04:05:31.822Z,8.03
2019-06-27T04:10:35.220Z,9.53
2019-06-27T04:15:38.602Z,8.23
2019-06-27T04:20:42.134Z,8.97
2019-06-27T04:25:45.458Z,9.77
2019-06-27T04:30:48.856Z,9.60
2019-06-27T04:35:52.181Z,8.67
2019-06-27T04:40:55.620Z,8.30
2019-06-27T04:45:58.993Z,9.43
2019-06-27T04:51:02.365Z,9.63
2019-06-27T04:56:05.711Z,8.60
2019-06-27T05:01:09.145Z,8.47
2019-06-27T05:06:12.479Z,9.50
2019-06-27T05:11:15.994Z,8.90
2019-06-27T05:16:19.356Z,9.00
2019-06-27T05:21:22.717Z,8.50
2019-06-27T05:26:26.150Z,7.97
2019-06-27T05:31:29.644Z,8.07
2019-06-27T05:36:33.088Z,8.73
2019-06-27T05:41:36.397Z,7.97
2019-06-27T05:46:39.761Z,7.50
2019-06-27T05:51:43.219Z,8.10
2019-06-27T05:56:46.618Z,8.07
2019-06-27T06:01:49.999Z,7.27
2019-06-27T06:06:53.467Z,6.83
2019-06-27T06:11:56.906Z,6.93
2019-06-27T06:17:00.326Z,6.43
2019-06-27T06:22:03.693Z,7.03
2019-06-27T06:27:07.166Z,6.80
2019-06-27T06:32:10.725Z,7.20
2019-06-27T06:37:15.236Z,8.43
2019-06-27T06:42:18.607Z,7.20
2019-06-27T06:47:21.963Z,6.50
2019-06-27T06:52:25.432Z,7.13
2019-06-27T06:57:28.793Z,7.77
2019-06-27T07:02:32.244Z,6.37
2019-06-27T07:07:35.611Z,6.67
2019-06-27T07:12:38.979Z,5.70
2019-06-27T07:17:42.343Z,5.92
2019-06-27T07:22:45.689Z,6.77
2019-06-27T07:27:49.040Z,6.25
2019-06-27T07:32:52.445Z,6.33
2019-06-27T07:37:55.900Z,6.42
2019-06-27T07:42:59.253Z,6.50
2019-06-27T07:48:02.677Z,7.43
2019-06-27T07:53:06.065Z,7.25
2019-06-27T07:58:09.457Z,7.00
2019-06-27T08:03:12.800Z,6.85
2019-06-27T08:08:16.236Z,7.22
2019-06-27T08:13:19.650Z,7.40
2019-06-27T08:18:23.321Z,7.28
2019-06-27T08:23:40.558Z,6.28
2019-06-27T08:28:31.958Z,7.08
2019-06-27T08:33:35.331Z,7.62
2019-06-27T08:38:38.672Z,6.67
2019-06-27T08:43:42.126Z,7.03
2019-06-27T08:48:45.544Z,7.35
2019-06-27T08:53:49.183Z,7.15
2019-06-27T08:58:52.584Z,7.42
2019-06-27T09:03:56.081Z,7.40
2019-06-27T09:08:59.490Z,6.92
2019-06-27T09:14:02.831Z,6.85
2019-06-27T09:19:06.235Z,6.97
2019-06-27T09:24:09.789Z,6.10
2019-06-27T09:29:13.269Z,6.00
2019-06-27T09:34:16.705Z,5.65
2019-06-27T09:39:20.180Z,6.08
2019-06-27T09:44:23.871Z,5.17
2019-06-27T09:49:27.246Z,5.00
2019-06-27T09:54:30.760Z,6.25
2019-06-27T09:59:34.217Z,5.93
2019-06-27T10:04:37.767Z,5.75
2019-06-27T10:09:41.124Z,5.97
2019-06-27T10:14:44.486Z,5.85
2019-06-27T10:19:48.008Z,4.50
2019-06-27T10:24:51.407Z,4.80
2019-06-27T10:29:54.783Z,4.12
2019-06-27T10:34:58.225Z,4.15
2019-06-27T10:40:01.695Z,4.58
2019-06-27T10:45:08.434Z,3.70
2019-06-27T10:50:12.353Z,3.80
2019-06-27T10:55:15.795Z,3.90
2019-06-27T11:00:19.395Z,4.08
2019-06-27T11:05:22.820Z,3.45
2019-06-27T11:10:26.198Z,3.60
2019-06-27T11:15:29.568Z,2.87
2019-06-27T11:20:32.982Z,3.22
2019-06-27T11:25:36.314Z,3.40
2019-06-27T11:30:39.806Z,3.63
2019-06-27T11:35:43.141Z,2.50
2019-06-27T11:40:46.583Z,3.25
2019-06-27T11:45:49.999Z,2.70
2019-06-27T11:50:54.304Z,2.70
2019-06-27T11:55:57.692Z,2.52
2019-06-27T12:01:01.078Z,2.12
2019-06-27T12:06:04.463Z,1.70
2019-06-27T12:11:07.804Z,1.70
2019-06-27T12:16:11.157Z,1.30
2019-06-27T12:21:14.542Z,1.12
2019-06-27T12:26:17.897Z,1.72
2019-06-27T12:31:21.533Z,1.40
2019-06-27T12:36:24.933Z,1.30
2019-06-27T12:41:28.275Z,1.55
2019-06-27T12:46:31.625Z,1.32
2019-06-27T12:51:35.059Z,1.40
2019-06-27T12:56:38.377Z,1.50
2019-06-27T13:01:41.733Z,1.45
2019-06-27T13:06:45.233Z,1.62
2019-06-27T13:11:49.439Z,1.35
2019-06-27T13:16:52.765Z,1.60
2019-06-27T13:21:56.129Z,1.20
2019-06-27T13:26:59.486Z,1.55
2019-06-27T13:32:02.920Z,1.60
2019-06-27T13:37:06.265Z,1.70
2019-06-27T13:42:09.671Z,1.35
2019-06-27T13:47:13.027Z,1.00
2019-06-27T13:52:16.385Z,1.40
2019-06-27T13:57:19.756Z,1.40
2019-06-27T14:02:23.155Z,1.47
2019-06-27T14:07:26.504Z,1.55
2019-06-27T14:12:30.435Z,1.75
2019-06-27T14:17:33.822Z,1.90
2019-06-27T14:22:37.153Z,1.75
2019-06-27T14:27:40.473Z,2.77
2019-06-27T14:32:43.898Z,2.00
2019-06-27T14:37:47.367Z,1.70
2019-06-27T14:42:50.800Z,2.08
2019-06-27T14:47:54.133Z,1.90
2019-06-27T14:52:57.483Z,1.47
2019-06-27T14:58:00.856Z,1.90
2019-06-27T15:03:04.278Z,1.72
2019-06-27T15:08:07.700Z,1.82
2019-06-27T15:13:11.064Z,1.67
2019-06-27T15:18:16.774Z,1.27
2019-06-27T15:23:19.689Z,1.40
2019-06-27T15:28:23.526Z,1.55
2019-06-27T15:33:26.864Z,1.77
2019-06-27T15:38:30.352Z,1.25
2019-06-27T15:43:33.681Z,1.52
2019-06-27T15:48:37.322Z,1.52
2019-06-27T15:53:40.746Z,1.50
2019-06-27T15:58:44.119Z,1.70
2019-06-27T16:03:47.440Z,1.37
2019-06-27T16:08:50.836Z,1.30
2019-06-27T16:13:54.251Z,1.47
2019-06-27T16:18:57.581Z,1.90
2019-06-27T16:24:01.021Z,1.70
2019-06-27T16:29:04.356Z,1.37
2019-06-27T16:34:07.719Z,1.25
2019-06-27T16:39:11.114Z,1.37
2019-06-27T16:44:14.471Z,1.25
2019-06-27T16:49:17.809Z,1.57
2019-06-27T16:54:21.187Z,1.15
2019-06-27T16:59:24.481Z,1.30
2019-06-27T17:04:28.024Z,1.90
2019-06-27T17:09:31.371Z,1.47
2019-06-27T17:14:34.695Z,1.80
2019-06-27T17:19:38.202Z,1.57
2019-06-27T17:24:41.547Z,1.37
2019-06-27T17:29:44.873Z,1.70
2019-06-27T17:34:48.302Z,1.50
2019-06-27T17:39:51.664Z,1.20
2019-06-27T17:44:55.088Z,1.00
2019-06-27T17:49:58.528Z,1.25
2019-06-27T17:55:01.972Z,1.37
2019-06-27T18:00:06.557Z,1.30
2019-06-27T18:05:10.256Z,1.50
2019-06-27T18:10:14.065Z,1.57
2019-06-27T18:15:17.662Z,1.20
2019-06-27T18:20:20.990Z,0.80
2019-06-27T18:25:24.338Z,1.60
2019-06-27T18:30:27.676Z,0.90
2019-06-27T18:35:31.058Z,1.12
2019-06-27T18:40:34.482Z,1.30
2019-06-27T18:45:37.821Z,0.90
2019-06-27T18:50:41.274Z,0.80
2019-06-27T18:55:44.671Z,1.00
2019-06-27T19:00:49.126Z,1.12
2019-06-27T19:05:52.575Z,0.95
2019-06-27T19:10:55.908Z,1.12
2019-06-27T19:15:59.407Z,1.10
2019-06-27T19:21:04.382Z,1.17
2019-06-27T19:26:07.872Z,1.27
2019-06-27T19:31:11.256Z,1.80
2019-06-27T19:36:14.588Z,1.20
2019-06-27T19:41:17.963Z,1.02
2019-06-27T19:46:21.331Z,1.10
2019-06-27T19:51:24.743Z,1.50
2019-06-27T19:56:28.151Z,1.10
2019-06-27T20:01:31.556Z,1.50
2019-06-27T20:06:35.004Z,1.30
2019-06-27T20:11:38.275Z,1.37
2019-06-27T20:16:41.622Z,1.30
2019-06-27T20:21:44.966Z,1.10
2019-06-27T20:26:48.312Z,1.50
2019-06-27T20:31:51.664Z,1.90
2019-06-27T20:36:55.084Z,1.50
2019-06-27T20:41:58.576Z,1.70
2019-06-27T20:47:02.006Z,1.60
2019-06-27T20:52:04.456Z,1.77
2019-06-27T20:57:07.746Z,1.77
2019-06-27T21:02:11.085Z,1.73
2019-06-27T21:07:14.482Z,1.50
2019-06-27T21:12:17.872Z,1.70
2019-06-27T21:17:21.197Z,1.80
2019-06-27T21:22:24.540Z,1.97
2019-06-27T21:27:27.905Z,1.60
2019-06-27T21:32:32.140Z,1.93
2019-06-27T21:37:35.871Z,1.53
2019-06-27T21:42:39.301Z,1.57
2019-06-27T21:47:42.683Z,1.63
2019-06-27T21:52:46.053Z,2.07
2019-06-27T21:57:49.411Z,1.50
2019-06-27T22:02:52.746Z,2.00
2019-06-27T22:07:56.071Z,1.53
2019-06-27T22:12:59.472Z,1.60
2019-06-27T22:18:02.931Z,1.40
2019-06-27T22:23:06.252Z,1.87
2019-06-27T22:28:09.585Z,1.30
2019-06-27T22:33:12.985Z,1.70
2019-06-27T22:38:34.376Z,1.50
2019-06-27T22:43:55.640Z,1.53
2019-06-27T22:48:59.569Z,1.50
2019-06-27T22:54:04.556Z,2.00
2019-06-27T22:59:07.892Z,1.50
2019-06-27T23:04:11.326Z,1.57
2019-06-27T23:09:14.704Z,1.80
2019-06-27T23:14:18.113Z,1.80
2019-06-27T23:19:21.447Z,1.53
2019-06-27T23:24:24.823Z,1.53
2019-06-27T23:29:28.349Z,1.53
2019-06-27T23:34:31.711Z,1.63
2019-06-27T23:39:35.199Z,1.70
2019-06-27T23:44:38.975Z,1.73
2019-06-27T23:49:42.428Z,1.50
2019-06-27T23:54:45.964Z,1.97
2019-06-27T23:59:49.372Z,1.60
